Time;durP1;ratioP1;P1;durP2;ratioP2;P2;SDS_P1;SDS_P2;PMS_P1;PMS_P2;Temp;Humidity;BMP_temperature;BMP_pressure;BME280_temperature;BME280_humidity;BME280_pressure;Samples;Min_cycle;Max_cycle;Signal;HPM_P1;HPM_P2
2022/03/04 00:02:01;;;;;;;;;;;6.20;99.90;;;;;;5092859;28;20015;-82
2022/03/04 00:04:27;;;;;;;;;;;6.20;99.90;;;;;;5092538;28;20360;-78
2022/03/04 00:06:53;;;;;;;;;;;6.10;99.90;;;;;;5092378;28;19916;-81
2022/03/04 00:09:20;;;;;;;;;;;6.10;99.90;;;;;;5103865;28;19897;-81
2022/03/04 00:11:47;;;;;;;;;;;6.00;99.90;;;;;;5092236;28;19916;-80
2022/03/04 00:14:13;;;;;;;;;;;6.00;99.90;;;;;;5092483;28;19912;-80
2022/03/04 00:16:38;;;;;;;;;;;6.00;99.90;;;;;;5091719;28;19914;-81
2022/03/04 00:19:07;;;;;;;;;;;5.90;99.90;;;;;;5092452;28;20383;-80
2022/03/04 00:21:34;;;;;;;;;;;5.90;99.90;;;;;;5091883;28;19912;-80
2022/03/04 00:24:00;;;;;;;;;;;5.90;99.90;;;;;;5092640;28;19966;-82
2022/03/04 00:26:25;;;;;;;;;;;5.90;99.90;;;;;;5092612;28;19951;-81
2022/03/04 00:28:51;;;;;;;;;;;5.90;99.90;;;;;;5091692;28;19915;-80
2022/03/04 00:31:16;;;;;;;;;;;5.80;99.90;;;;;;5092992;28;19908;-80
2022/03/04 00:33:42;;;;;;;;;;;5.80;99.90;;;;;;5092085;28;20480;-79
2022/03/04 00:36:08;;;;;;;;;;;5.70;99.90;;;;;;5094484;28;19915;-79
2022/03/04 00:38:33;;;;;;;;;;;5.70;99.90;;;;;;5096335;28;19912;-78
2022/03/04 00:40:59;;;;;;;;;;;5.60;99.90;;;;;;5097409;28;20349;-78
2022/03/04 00:43:24;;;;;;;;;;;5.60;99.90;;;;;;5097110;28;20307;-78
2022/03/04 00:45:50;;;;;;;;;;;5.50;99.90;;;;;;5096470;28;19912;-78
2022/03/04 00:48:16;;;;;;;;;;;5.50;99.90;;;;;;5097044;28;19929;-79
2022/03/04 00:50:41;;;;;;;;;;;5.50;99.90;;;;;;5096218;28;19991;-78
2022/03/04 00:53:07;;;;;;;;;;;5.50;99.90;;;;;;5095893;28;20372;-78
2022/03/04 00:55:37;;;;;;;;;;;5.50;99.90;;;;;;5096198;28;19916;-78
2022/03/04 00:58:04;;;;;;;;;;;5.40;99.90;;;;;;5096435;28;19927;-78
2022/03/04 01:00:30;;;;;;;;;;;5.40;99.90;;;;;;5095306;28;19908;-76
2022/03/04 01:02:55;;;;;;;;;;;5.40;99.90;;;;;;5096126;28;20250;-79
2022/03/04 01:05:21;;;;;;;;;;;5.40;99.90;;;;;;5097023;28;19912;-79
2022/03/04 01:07:46;;;;;;;;;;;5.40;99.90;;;;;;5095953;28;20269;-79
2022/03/04 01:10:12;;;;;;;;;;;5.50;99.90;;;;;;5096406;28;19953;-79
2022/03/04 01:12:38;;;;;;;;;;;5.50;99.90;;;;;;5095789;28;20353;-79
2022/03/04 01:15:03;;;;;;;;;;;5.50;99.90;;;;;;5096266;28;20319;-79
2022/03/04 01:17:29;;;;;;;;;;;5.50;99.90;;;;;;5096212;28;19993;-79
2022/03/04 01:19:55;;;;;;;;;;;5.50;99.90;;;;;;5095624;28;19961;-79
2022/03/04 01:22:20;;;;;;;;;;;5.50;99.90;;;;;;5096339;28;19961;-79
2022/03/04 01:24:46;;;;;;;;;;;5.50;99.90;;;;;;5095678;28;20269;-79
2022/03/04 01:27:11;;;;;;;;;;;5.50;99.90;;;;;;5094918;28;20057;-79
2022/03/04 01:29:37;;;;;;;;;;;5.40;99.90;;;;;;5095623;28;20365;-78
2022/03/04 01:32:02;;;;;;;;;;;5.40;99.90;;;;;;5096222;28;19912;-79
2022/03/04 01:34:28;;;;;;;;;;;5.40;99.90;;;;;;5096460;28;19908;-79
2022/03/04 01:36:53;;;;;;;;;;;5.40;99.90;;;;;;5095039;28;19918;-79
2022/03/04 01:39:19;;;;;;;;;;;5.30;99.90;;;;;;5095960;28;19912;-79
2022/03/04 01:41:45;;;;;;;;;;;5.30;99.90;;;;;;5095499;28;19908;-79
2022/03/04 01:44:10;;;;;;;;;;;5.20;99.90;;;;;;5095846;28;19912;-79
2022/03/04 01:46:36;;;;;;;;;;;5.20;99.90;;;;;;5095220;28;19919;-78
2022/03/04 01:49:01;;;;;;;;;;;5.10;99.90;;;;;;5095898;28;20002;-79
2022/03/04 01:51:27;;;;;;;;;;;5.10;99.90;;;;;;5095635;28;19954;-79
2022/03/04 01:53:53;;;;;;;;;;;5.10;99.90;;;;;;5095157;28;19919;-78
2022/03/04 01:56:18;;;;;;;;;;;5.10;99.90;;;;;;5108310;28;19983;-77
2022/03/04 01:58:45;;;;;;;;;;;5.00;99.90;;;;;;5103753;28;19920;-79
2022/03/04 02:01:11;;;;;;;;;;;4.90;99.90;;;;;;5095591;28;19915;-79
2022/03/04 02:03:38;;;;;;;;;;;4.90;99.90;;;;;;5092695;28;20203;-78
2022/03/04 02:06:04;;;;;;;;;;;4.80;99.90;;;;;;5095624;28;19916;-79
2022/03/04 02:08:29;;;;;;;;;;;4.70;99.90;;;;;;5095066;28;20276;-79
2022/03/04 02:10:55;;;;;;;;;;;4.70;99.90;;;;;;5094750;28;19957;-78
2022/03/04 02:13:21;;;;;;;;;;;4.60;99.90;;;;;;5095389;28;19915;-78
2022/03/04 02:15:48;;;;;;;;;;;4.60;99.90;;;;;;5095009;28;20210;-78
2022/03/04 02:18:15;;;;;;;;;;;4.70;99.90;;;;;;5095430;28;19912;-78
2022/03/04 02:20:44;;;;;;;;;;;4.70;99.90;;;;;;5094581;28;19912;-78
2022/03/04 02:23:12;;;;;;;;;;;4.60;99.90;;;;;;5095265;28;19908;-78
2022/03/04 02:25:41;;;;;;;;;;;4.50;99.90;;;;;;5094440;28;19915;-76
2022/03/04 02:28:07;;;;;;;;;;;4.60;99.90;;;;;;5095427;28;19955;-78
2022/03/04 02:30:33;;;;;;;;;;;4.50;99.90;;;;;;5095025;28;19912;-78
2022/03/04 02:32:59;;;;;;;;;;;4.60;99.90;;;;;;5094466;28;20277;-79
2022/03/04 02:35:25;;;;;;;;;;;4.50;99.90;;;;;;5094691;28;19908;-80
2022/03/04 02:37:50;;;;;;;;;;;4.50;99.90;;;;;;5094326;28;20309;-80
2022/03/04 02:40:16;;;;;;;;;;;4.40;99.90;;;;;;5095024;28;19920;-79
2022/03/04 02:42:41;;;;;;;;;;;4.40;99.90;;;;;;5092915;28;19917;-78
2022/03/04 02:45:07;;;;;;;;;;;4.40;99.90;;;;;;5094900;28;19916;-81
2022/03/04 02:47:33;;;;;;;;;;;4.30;99.90;;;;;;5094489;28;19973;-78
2022/03/04 02:49:58;;;;;;;;;;;4.30;99.90;;;;;;5093809;28;19904;-79
2022/03/04 02:52:24;;;;;;;;;;;4.30;99.90;;;;;;5094638;28;20303;-79
2022/03/04 02:54:49;;;;;;;;;;;4.20;99.90;;;;;;5094002;28;19931;-78
2022/03/04 02:57:15;;;;;;;;;;;4.20;99.90;;;;;;5094206;28;19927;-79
2022/03/04 02:59:40;;;;;;;;;;;4.20;99.90;;;;;;5093100;28;19912;-77
2022/03/04 03:02:06;;;;;;;;;;;4.20;99.90;;;;;;5093161;28;20321;-79
2022/03/04 03:04:32;;;;;;;;;;;4.20;99.90;;;;;;5094403;28;19916;-79
2022/03/04 03:06:57;;;;;;;;;;;4.10;99.90;;;;;;5093745;28;19919;-79
2022/03/04 03:09:23;;;;;;;;;;;4.20;99.90;;;;;;5094133;28;19912;-78
2022/03/04 03:11:49;;;;;;;;;;;4.10;99.90;;;;;;5093522;28;19908;-77
2022/03/04 03:14:14;;;;;;;;;;;4.10;99.90;;;;;;5110600;28;19908;-79
2022/03/04 03:16:40;;;;;;;;;;;4.00;99.90;;;;;;5096765;28;20007;-76
2022/03/04 03:19:08;;;;;;;;;;;4.00;99.90;;;;;;5093827;28;19908;-79
2022/03/04 03:21:33;;;;;;;;;;;4.00;99.90;;;;;;5093935;28;20006;-79
2022/03/04 03:23:59;;;;;;;;;;;4.00;99.90;;;;;;5093332;28;20023;-78
2022/03/04 03:26:25;;;;;;;;;;;3.90;99.90;;;;;;5094262;28;19908;-79
2022/03/04 03:28:50;;;;;;;;;;;3.90;99.90;;;;;;5093269;28;19912;-78
2022/03/04 03:31:16;;;;;;;;;;;3.90;99.90;;;;;;5093589;28;19912;-78
2022/03/04 03:33:43;;;;;;;;;;;3.90;99.90;;;;;;5093600;28;19908;-77
2022/03/04 03:36:08;;;;;;;;;;;3.90;99.90;;;;;;5093748;28;20310;-78
2022/03/04 03:38:34;;;;;;;;;;;3.80;99.90;;;;;;5092247;28;19908;-78
2022/03/04 03:41:00;;;;;;;;;;;3.80;99.90;;;;;;5091594;28;19908;-79
2022/03/04 03:43:25;;;;;;;;;;;3.70;99.90;;;;;;5093565;28;19916;-78
2022/03/04 03:45:51;;;;;;;;;;;3.70;99.90;;;;;;5093061;28;19908;-78
2022/03/04 03:48:17;;;;;;;;;;;3.70;99.90;;;;;;5093562;28;20478;-78
2022/03/04 03:50:42;;;;;;;;;;;3.60;99.90;;;;;;5093410;28;19919;-77
2022/03/04 03:53:08;;;;;;;;;;;3.60;99.90;;;;;;5092926;28;19914;-78
2022/03/04 03:55:34;;;;;;;;;;;3.50;99.90;;;;;;5093458;28;20371;-78
2022/03/04 03:58:00;;;;;;;;;;;3.50;99.90;;;;;;5092825;28;19924;-78
2022/03/04 04:00:26;;;;;;;;;;;3.50;99.90;;;;;;5093447;28;19909;-78
2022/03/04 04:02:52;;;;;;;;;;;3.50;99.90;;;;;;5092750;28;19908;-78
2022/03/04 04:05:18;;;;;;;;;;;3.40;99.90;;;;;;5093262;28;19916;-78
2022/03/04 04:07:43;;;;;;;;;;;3.40;99.90;;;;;;5092771;28;19912;-77
2022/03/04 04:10:09;;;;;;;;;;;3.40;99.90;;;;;;5091933;28;19915;-78
2022/03/04 04:12:35;;;;;;;;;;;3.50;99.90;;;;;;5092716;28;20006;-79
2022/03/04 04:15:00;;;;;;;;;;;3.40;99.90;;;;;;5092539;28;20002;-78
2022/03/04 04:17:26;;;;;;;;;;;3.40;99.90;;;;;;5093089;28;19908;-78
2022/03/04 04:19:53;;;;;;;;;;;3.30;99.90;;;;;;5092610;28;19908;-77
2022/03/04 04:22:19;;;;;;;;;;;3.30;99.90;;;;;;5093249;28;19961;-78
2022/03/04 04:24:44;;;;;;;;;;;3.40;99.90;;;;;;5092777;28;20018;-77
2022/03/04 04:27:10;;;;;;;;;;;3.30;99.90;;;;;;5092666;28;19973;-77
2022/03/04 04:29:35;;;;;;;;;;;3.30;99.90;;;;;;5096336;28;19909;-78
2022/03/04 04:32:01;;;;;;;;;;;3.30;99.90;;;;;;5110102;28;19954;-78
2022/03/04 04:34:27;;;;;;;;;;;3.30;99.90;;;;;;5092953;28;20380;-78
2022/03/04 04:36:52;;;;;;;;;;;3.20;99.90;;;;;;5092436;28;19908;-78
2022/03/04 04:39:18;;;;;;;;;;;3.20;99.90;;;;;;5092934;28;19908;-78
2022/03/04 04:41:44;;;;;;;;;;;3.10;99.90;;;;;;5092835;28;20394;-78
2022/03/04 04:44:10;;;;;;;;;;;3.10;99.90;;;;;;5090935;28;19923;-78
2022/03/04 04:46:35;;;;;;;;;;;3.10;99.90;;;;;;5091673;28;19908;-78
2022/03/04 04:49:01;;;;;;;;;;;3.10;99.90;;;;;;5092335;28;20049;-78
2022/03/04 04:51:27;;;;;;;;;;;3.20;99.90;;;;;;5092870;28;19919;-78
2022/03/04 04:53:53;;;;;;;;;;;3.10;99.90;;;;;;5092211;28;19955;-78
2022/03/04 04:56:19;;;;;;;;;;;3.00;99.90;;;;;;5092748;28;19916;-78
2022/03/04 04:58:45;;;;;;;;;;;2.90;99.90;;;;;;5092341;28;19920;-78
2022/03/04 05:01:11;;;;;;;;;;;2.90;99.90;;;;;;5092175;28;20358;-77
2022/03/04 05:03:36;;;;;;;;;;;2.90;99.90;;;;;;5092664;28;19960;-78
2022/03/04 05:06:02;;;;;;;;;;;2.90;99.90;;;;;;5091777;28;19912;-78
2022/03/04 05:08:29;;;;;;;;;;;2.90;99.90;;;;;;5092627;28;20003;-78
2022/03/04 05:10:58;;;;;;;;;;;2.80;99.90;;;;;;5091638;28;19908;-77
2022/03/04 05:13:24;;;;;;;;;;;2.80;99.90;;;;;;5092239;28;20266;-78
2022/03/04 05:15:50;;;;;;;;;;;2.80;99.90;;;;;;5092048;28;19912;-76
2022/03/04 05:18:15;;;;;;;;;;;2.80;99.90;;;;;;5092472;28;20298;-77
2022/03/04 05:20:41;;;;;;;;;;;2.70;99.90;;;;;;5091361;28;19908;-78
2022/03/04 05:23:07;;;;;;;;;;;2.70;99.90;;;;;;5094852;28;19908;-78
2022/03/04 05:25:32;;;;;;;;;;;2.80;99.90;;;;;;5096034;28;20385;-79
2022/03/04 05:27:58;;;;;;;;;;;2.60;99.90;;;;;;5095685;28;20265;-77
2022/03/04 05:30:24;;;;;;;;;;;2.70;99.90;;;;;;5096145;28;20379;-78
2022/03/04 05:32:49;;;;;;;;;;;2.60;99.90;;;;;;5095940;28;19908;-76
2022/03/04 05:35:15;;;;;;;;;;;2.70;99.90;;;;;;5096128;28;20257;-77
2022/03/04 05:37:41;;;;;;;;;;;2.60;99.90;;;;;;5094751;28;20303;-77
2022/03/04 05:40:08;;;;;;;;;;;2.60;99.90;;;;;;5095194;28;20265;-78
2022/03/04 05:42:33;;;;;;;;;;;2.60;99.90;;;;;;5095894;28;20007;-77
2022/03/04 05:44:59;;;;;;;;;;;2.60;99.90;;;;;;5102906;28;19955;-77
2022/03/04 05:47:25;;;;;;;;;;;2.50;99.90;;;;;;5100889;28;19943;-77
2022/03/04 05:49:51;;;;;;;;;;;2.50;99.90;;;;;;5095427;28;19915;-76
2022/03/04 05:52:16;;;;;;;;;;;2.50;99.90;;;;;;5095545;28;19909;-78
2022/03/04 05:54:42;;;;;;;;;;;2.50;99.90;;;;;;5095838;28;19915;-78
2022/03/04 05:57:07;;;;;;;;;;;2.40;99.90;;;;;;5095037;28;19920;-77
2022/03/04 05:59:33;;;;;;;;;;;2.40;99.90;;;;;;5095592;28;20399;-78
2022/03/04 06:01:59;;;;;;;;;;;2.50;99.90;;;;;;5095123;28;19933;-78
2022/03/04 06:04:24;;;;;;;;;;;2.40;99.90;;;;;;5094178;28;20421;-78
2022/03/04 06:06:50;;;;;;;;;;;2.40;99.90;;;;;;5095507;28;20442;-78
2022/03/04 06:09:16;;;;;;;;;;;2.40;99.90;;;;;;5094819;28;19908;-78
2022/03/04 06:11:41;;;;;;;;;;;2.40;99.90;;;;;;5095485;28;19915;-78
2022/03/04 06:14:07;;;;;;;;;;;2.30;99.90;;;;;;5094705;28;19908;-78
2022/03/04 06:16:33;;;;;;;;;;;2.30;99.90;;;;;;5095356;28;19958;-78
2022/03/04 06:18:58;;;;;;;;;;;2.30;99.90;;;;;;5094562;28;19916;-77
2022/03/04 06:21:24;;;;;;;;;;;2.20;99.90;;;;;;5094870;28;19908;-79
2022/03/04 06:23:50;;;;;;;;;;;2.30;99.90;;;;;;5094816;28;19916;-78
2022/03/04 06:26:15;;;;;;;;;;;2.30;99.90;;;;;;5093044;28;20383;-78
2022/03/04 06:28:41;;;;;;;;;;;2.40;99.90;;;;;;5094942;28;20360;-78
2022/03/04 06:31:07;;;;;;;;;;;2.30;99.90;;;;;;5094215;28;20002;-78
2022/03/04 06:33:33;;;;;;;;;;;2.30;99.90;;;;;;5093622;28;19912;-78
2022/03/04 06:36:01;;;;;;;;;;;2.30;99.90;;;;;;5094100;28;19931;-78
2022/03/04 06:38:26;;;;;;;;;;;2.40;99.90;;;;;;5094884;28;19908;-79
2022/03/04 06:40:52;;;;;;;;;;;2.30;99.90;;;;;;5094899;28;19976;-79
2022/03/04 06:43:18;;;;;;;;;;;2.30;99.90;;;;;;5093982;28;20062;-78
2022/03/04 06:45:45;;;;;;;;;;;2.30;99.90;;;;;;5094624;28;19912;-79
2022/03/04 06:48:11;;;;;;;;;;;2.30;99.90;;;;;;5093961;28;19908;-79
2022/03/04 06:50:37;;;;;;;;;;;2.20;99.90;;;;;;5094386;28;20327;-79
2022/03/04 06:53:03;;;;;;;;;;;2.20;99.90;;;;;;5094074;28;19912;-78
2022/03/04 06:55:29;;;;;;;;;;;2.10;99.90;;;;;;5094826;28;19956;-79
2022/03/04 06:57:55;;;;;;;;;;;2.00;99.90;;;;;;5094362;28;19945;-79
2022/03/04 07:00:21;;;;;;;;;;;2.00;99.90;;;;;;5104454;28;19919;-79
2022/03/04 07:02:47;;;;;;;;;;;2.00;99.90;;;;;;5102734;28;20357;-78
2022/03/04 07:05:13;;;;;;;;;;;2.00;99.90;;;;;;5092410;28;19920;-78
2022/03/04 07:07:39;;;;;;;;;;;2.10;99.90;;;;;;5094420;28;19962;-78
2022/03/04 07:10:05;;;;;;;;;;;2.10;99.90;;;;;;5093806;28;20360;-78
2022/03/04 07:12:30;;;;;;;;;;;2.10;99.90;;;;;;5094324;28;19908;-78
2022/03/04 07:14:56;;;;;;;;;;;2.10;99.90;;;;;;5093927;28;19908;-78
2022/03/04 07:17:22;;;;;;;;;;;2.00;99.90;;;;;;5093493;28;20045;-78
2022/03/04 07:19:48;;;;;;;;;;;2.00;99.90;;;;;;5093779;28;20369;-78
2022/03/04 07:22:13;;;;;;;;;;;2.10;99.90;;;;;;5093430;28;19919;-78
2022/03/04 07:24:39;;;;;;;;;;;2.00;99.90;;;;;;5093576;28;20010;-78
2022/03/04 07:27:04;;;;;;;;;;;2.10;99.90;;;;;;5093393;28;20357;-78
2022/03/04 07:29:30;;;;;;;;;;;2.10;99.90;;;;;;5092475;28;19908;-79
2022/03/04 07:31:56;;;;;;;;;;;2.10;99.90;;;;;;5093518;28;19914;-80
2022/03/04 07:34:25;;;;;;;;;;;2.20;99.90;;;;;;5093172;28;19999;-79
2022/03/04 07:36:51;;;;;;;;;;;2.30;99.90;;;;;;5093624;28;20251;-78
2022/03/04 07:39:17;;;;;;;;;;;2.40;99.90;;;;;;5093433;28;19915;-78
2022/03/04 07:41:42;;;;;;;;;;;2.50;99.90;;;;;;5093648;28;19908;-79
2022/03/04 07:44:10;;;;;;;;;;;2.60;99.90;;;;;;5094802;28;19916;-78
2022/03/04 07:46:36;;;;;;;;;;;2.70;99.90;;;;;;5093183;28;19908;-79
2022/03/04 07:49:03;;;;;;;;;;;2.70;99.90;;;;;;5092144;28;20388;-77
2022/03/04 07:51:28;;;;;;;;;;;2.80;99.90;;;;;;5092910;28;19912;-78
2022/03/04 07:53:54;;;;;;;;;;;2.90;99.90;;;;;;5092847;28;20440;-78
2022/03/04 07:56:19;;;;;;;;;;;3.00;99.90;;;;;;5092248;28;19919;-78
2022/03/04 07:58:45;;;;;;;;;;;3.00;99.90;;;;;;5093376;28;19920;-78
2022/03/04 08:01:10;;;;;;;;;;;3.10;99.90;;;;;;5092676;28;20277;-77
2022/03/04 08:03:36;;;;;;;;;;;3.10;99.90;;;;;;5093114;28;19916;-78
2022/03/04 08:06:02;;;;;;;;;;;3.20;99.90;;;;;;5092410;28;20257;-76
2022/03/04 08:08:27;;;;;;;;;;;3.20;99.90;;;;;;5092777;28;20249;-79
2022/03/04 08:10:54;;;;;;;;;;;3.40;99.90;;;;;;5093107;28;19919;-79
2022/03/04 08:13:20;;;;;;;;;;;3.40;99.90;;;;;;5092359;28;19915;-78
2022/03/04 08:15:45;;;;;;;;;;;3.50;99.90;;;;;;5107400;28;19908;-78
2022/03/04 08:18:11;;;;;;;;;;;3.50;99.90;;;;;;5094910;28;20328;-78
2022/03/04 08:20:37;;;;;;;;;;;3.60;99.90;;;;;;5092580;28;19908;-78
2022/03/04 08:23:03;;;;;;;;;;;3.60;99.90;;;;;;5092383;28;19908;-76
2022/03/04 08:25:29;;;;;;;;;;;3.70;99.90;;;;;;5092682;28;19923;-78
2022/03/04 08:27:54;;;;;;;;;;;3.70;99.90;;;;;;5093010;28;19909;-78
2022/03/04 08:30:20;;;;;;;;;;;3.80;99.90;;;;;;5092275;28;19915;-79
2022/03/04 08:32:45;;;;;;;;;;;3.90;99.90;;;;;;5093143;28;20238;-78
2022/03/04 08:35:11;;;;;;;;;;;4.00;99.90;;;;;;5091991;28;19919;-78
2022/03/04 08:37:37;;;;;;;;;;;4.00;99.90;;;;;;5091186;28;19908;-82
2022/03/04 08:40:03;;;;;;;;;;;4.10;99.90;;;;;;5092312;28;19908;-77
2022/03/04 08:42:29;;;;;;;;;;;4.10;99.90;;;;;;5090728;28;20329;-78
2022/03/04 08:44:55;;;;;;;;;;;4.20;99.90;;;;;;5091800;28;19998;-79
2022/03/04 08:47:21;;;;;;;;;;;4.30;99.90;;;;;;5091441;28;19915;-78
2022/03/04 08:49:47;;;;;;;;;;;4.40;99.90;;;;;;5092522;28;20006;-78
2022/03/04 08:52:12;;;;;;;;;;;4.40;99.90;;;;;;5091993;28;20340;-78
2022/03/04 08:54:38;;;;;;;;;;;4.40;99.90;;;;;;5091364;28;19961;-79
2022/03/04 08:57:04;;;;;;;;;;;4.50;99.90;;;;;;5093826;28;19920;-77
2022/03/04 08:59:30;;;;;;;;;;;4.50;99.90;;;;;;5096111;28;19915;-79
2022/03/04 09:01:56;;;;;;;;;;;4.60;99.90;;;;;;5096970;28;19943;-79
2022/03/04 09:04:22;;;;;;;;;;;4.60;99.90;;;;;;5095897;28;19966;-79
2022/03/04 09:06:47;;;;;;;;;;;4.70;99.90;;;;;;5095052;28;19939;-79
2022/03/04 09:09:13;;;;;;;;;;;4.70;99.90;;;;;;5095788;28;19912;-79
2022/03/04 09:11:39;;;;;;;;;;;4.80;99.90;;;;;;5096067;28;20399;-79
2022/03/04 09:14:04;;;;;;;;;;;4.90;99.90;;;;;;5096035;28;19908;-77
2022/03/04 09:16:30;;;;;;;;;;;4.80;99.90;;;;;;5094981;28;19908;-79
2022/03/04 09:18:56;;;;;;;;;;;4.90;99.90;;;;;;5095314;28;19959;-79
2022/03/04 09:21:22;;;;;;;;;;;5.00;99.90;;;;;;5095081;28;19908;-79
2022/03/04 09:23:47;;;;;;;;;;;5.10;99.90;;;;;;5095601;28;20395;-79
2022/03/04 09:26:13;;;;;;;;;;;5.20;99.90;;;;;;5095436;28;19958;-79
2022/03/04 09:28:38;;;;;;;;;;;5.20;99.90;;;;;;5096210;28;19975;-79
2022/03/04 09:31:04;;;;;;;;;;;5.30;99.90;;;;;;5113528;28;19900;-80
2022/03/04 09:33:30;;;;;;;;;;;5.30;99.90;;;;;;5095256;28;19908;-78
2022/03/04 09:35:55;;;;;;;;;;;5.40;99.90;;;;;;5095302;28;20246;-79
2022/03/04 09:38:21;;;;;;;;;;;5.40;99.90;;;;;;5095211;28;19909;-79
2022/03/04 09:40:49;;;;;;;;;;;5.40;99.90;;;;;;5096182;28;20368;-79
2022/03/04 09:43:18;;;;;;;;;;;5.40;99.90;;;;;;5095344;28;19994;-79
2022/03/04 09:45:47;;;;;;;;;;;5.50;99.90;;;;;;5095622;28;19946;-80
2022/03/04 09:48:14;;;;;;;;;;;5.50;99.90;;;;;;5095297;28;19997;-79
2022/03/04 09:50:41;;;;;;;;;;;5.60;99.90;;;;;;5095226;28;20369;-78
2022/03/04 09:53:09;;;;;;;;;;;5.70;99.90;;;;;;5095509;28;19908;-76
2022/03/04 09:55:36;;;;;;;;;;;5.70;99.90;;;;;;5095106;28;19967;-78
2022/03/04 09:58:01;;;;;;;;;;;5.90;99.90;;;;;;5095041;28;19920;-77
2022/03/04 10:00:27;;;;;;;;;;;5.90;99.90;;;;;;5094709;28;20491;-78
2022/03/04 10:02:52;;;;;;;;;;;5.90;99.90;;;;;;5095022;28;19953;-79
2022/03/04 10:05:18;;;;;;;;;;;6.00;99.90;;;;;;5094478;28;19916;-78
2022/03/04 10:07:48;;;;;;;;;;;6.10;99.90;;;;;;5094573;28;19908;-78
2022/03/04 10:10:18;;;;;;;;;;;6.10;99.90;;;;;;5094043;28;19924;-78
2022/03/04 10:12:51;;;;;;;;;;;6.10;99.90;;;;;;5092613;28;19951;-79
2022/03/04 10:15:16;;;;;;;;;;;6.20;99.90;;;;;;5094142;28;20257;-79
2022/03/04 10:17:53;;;;;;;;;;;6.40;99.90;;;;;;5094408;28;19961;-79
2022/03/04 10:20:19;;;;;;;;;;;6.40;99.90;;;;;;5094908;28;19908;-78
2022/03/04 10:22:47;;;;;;;;;;;6.50;99.90;;;;;;5095403;28;20257;-79
2022/03/04 10:25:19;;;;;;;;;;;6.50;99.90;;;;;;5094584;28;20010;-77
2022/03/04 10:27:46;;;;;;;;;;;6.50;99.90;;;;;;5093898;28;19909;-78
2022/03/04 10:30:12;;;;;;;;;;;6.60;99.90;;;;;;5093681;28;19908;-76
2022/03/04 10:32:37;;;;;;;;;;;6.60;99.90;;;;;;5094613;28;19908;-78
2022/03/04 10:35:03;;;;;;;;;;;6.60;99.90;;;;;;5093848;28;19919;-79
2022/03/04 10:37:43;;;;;;;;;;;6.70;99.90;;;;;;5093743;28;19908;-77
2022/03/04 10:40:43;;;;;;;;;;;6.70;99.90;;;;;;5094012;28;19908;-78
2022/03/04 10:43:10;;;;;;;;;;;6.80;99.90;;;;;;5089846;28;20373;-76
2022/03/04 10:45:37;;;;;;;;;;;6.80;99.90;;;;;;5112147;28;19958;-77
2022/03/04 10:48:02;;;;;;;;;;;6.90;99.90;;;;;;5094081;28;19916;-77
2022/03/04 10:50:31;;;;;;;;;;;6.90;99.90;;;;;;5092359;28;19908;-78
2022/03/04 10:53:17;;;;;;;;;;;7.00;99.90;;;;;;5093866;28;19915;-77
2022/03/04 10:55:43;;;;;;;;;;;7.10;99.90;;;;;;5093065;28;20249;-78
2022/03/04 10:58:25;;;;;;;;;;;7.20;99.90;;;;;;5092373;28;20018;-78
2022/03/04 11:00:52;;;;;;;;;;;7.20;99.90;;;;;;5093780;28;20379;-79
2022/03/04 11:03:21;;;;;;;;;;;7.20;99.90;;;;;;5093427;28;19950;-78
2022/03/04 11:05:48;;;;;;;;;;;7.20;99.90;;;;;;5093825;28;19923;-78
2022/03/04 11:08:14;;;;;;;;;;;7.30;99.90;;;;;;5093072;28;19912;-77
2022/03/04 11:10:40;;;;;;;;;;;7.40;99.90;;;;;;5093707;28;19915;-78
2022/03/04 11:13:06;;;;;;;;;;;7.40;99.90;;;;;;5093739;28;19981;-77
2022/03/04 11:15:32;;;;;;;;;;;7.40;99.90;;;;;;5093098;28;19908;-77
2022/03/04 11:18:00;;;;;;;;;;;7.40;99.90;;;;;;5093430;28;19908;-78
2022/03/04 11:20:26;;;;;;;;;;;7.50;99.90;;;;;;5092304;28;19953;-78
2022/03/04 11:22:53;;;;;;;;;;;7.50;99.90;;;;;;5093175;28;19908;-77
2022/03/04 11:25:19;;;;;;;;;;;7.50;99.90;;;;;;5092827;28;20315;-78
2022/03/04 11:27:46;;;;;;;;;;;7.50;99.90;;;;;;5093063;28;20250;-79
2022/03/04 11:30:30;;;;;;;;;;;7.60;99.90;;;;;;5091609;28;20277;-77
2022/03/04 11:33:03;;;;;;;;;;;7.60;99.90;;;;;;5093236;28;19954;-78
2022/03/04 11:35:54;;;;;;;;;;;7.70;99.90;;;;;;5092533;28;19982;-78
2022/03/04 11:38:39;;;;;;;;;;;7.70;99.90;;;;;;5088785;28;19912;-78
2022/03/04 11:41:05;;;;;;;;;;;7.70;99.90;;;;;;5093138;28;19908;-78
2022/03/04 11:43:50;;;;;;;;;;;7.70;99.90;;;;;;5091100;28;19909;-79
2022/03/04 11:46:21;;;;;;;;;;;7.70;99.90;;;;;;5092213;28;20382;-79
2022/03/04 11:48:48;;;;;;;;;;;7.80;99.90;;;;;;5093263;28;19908;-79
2022/03/04 11:51:20;;;;;;;;;;;7.80;99.90;;;;;;5092368;28;19919;-79
2022/03/04 11:54:04;;;;;;;;;;;7.90;99.90;;;;;;5092942;28;19908;-80
2022/03/04 11:56:49;;;;;;;;;;;7.90;99.90;;;;;;5105705;28;19912;-78
2022/03/04 11:59:18;;;;;;;;;;;7.90;99.90;;;;;;5093234;28;19913;-79
2022/03/04 12:01:45;;;;;;;;;;;7.90;99.90;;;;;;5092746;28;19912;-78
2022/03/04 12:04:17;;;;;;;;;;;7.90;99.90;;;;;;5092706;28;19923;-78
2022/03/04 12:06:43;;;;;;;;;;;8.00;99.90;;;;;;5092727;28;19917;-77
2022/03/04 12:09:27;;;;;;;;;;;8.10;99.90;;;;;;5092513;28;19908;-78
2022/03/04 12:12:16;;;;;;;;;;;8.10;99.90;;;;;;5092759;28;19914;-79
2022/03/04 12:14:42;;;;;;;;;;;8.10;99.90;;;;;;5092507;28;19915;-78
2022/03/04 12:17:07;;;;;;;;;;;8.20;99.90;;;;;;5092043;28;19911;-78
2022/03/04 12:19:34;;;;;;;;;;;8.20;99.90;;;;;;5091167;28;19922;-78
2022/03/04 12:22:00;;;;;;;;;;;8.20;99.90;;;;;;5092319;28;19985;-78
2022/03/04 12:24:29;;;;;;;;;;;8.20;99.90;;;;;;5092606;28;19916;-78
2022/03/04 12:26:55;;;;;;;;;;;8.40;99.90;;;;;;5092720;28;19908;-79
2022/03/04 12:29:23;;;;;;;;;;;8.30;99.90;;;;;;5091988;28;19973;-78
2022/03/04 12:31:49;;;;;;;;;;;8.30;99.90;;;;;;5090144;28;19912;-78
2022/03/04 12:34:16;;;;;;;;;;;8.40;99.90;;;;;;5090759;28;19916;-77
2022/03/04 12:36:42;;;;;;;;;;;8.40;99.90;;;;;;5092387;28;19961;-78
2022/03/04 12:39:07;;;;;;;;;;;8.50;99.90;;;;;;5093434;28;19908;-79
2022/03/04 12:41:34;;;;;;;;;;;8.60;99.90;;;;;;5099543;28;19969;-78
2022/03/04 12:44:00;;;;;;;;;;;8.60;99.90;;;;;;5092691;28;19923;-78
2022/03/04 12:46:34;;;;;;;;;;;8.60;99.90;;;;;;5092156;28;19908;-79
2022/03/04 12:49:00;;;;;;;;;;;8.60;99.90;;;;;;5092705;28;19915;-79
2022/03/04 12:51:36;;;;;;;;;;;8.50;99.90;;;;;;5092006;28;19908;-79
2022/03/04 12:54:04;;;;;;;;;;;8.50;99.90;;;;;;5092957;28;19908;-79
2022/03/04 12:56:29;;;;;;;;;;;8.40;99.90;;;;;;5091986;28;20306;-78
2022/03/04 12:58:56;;;;;;;;;;;8.30;99.90;;;;;;5092286;28;19919;-80
2022/03/04 13:01:23;;;;;;;;;;;8.20;99.90;;;;;;5091680;28;19977;-77
2022/03/04 13:03:50;;;;;;;;;;;8.20;99.90;;;;;;5089460;28;19970;-78
2022/03/04 13:06:16;;;;;;;;;;;8.20;99.90;;;;;;5092135;28;19958;-78
2022/03/04 13:08:48;;;;;;;;;;;8.20;99.90;;;;;;5092252;28;19908;-80
2022/03/04 13:11:15;;;;;;;;;;;8.20;99.90;;;;;;5092693;28;19998;-79
2022/03/04 13:13:44;;;;;;;;;;;8.20;99.90;;;;;;5091818;28;19908;-80
2022/03/04 13:16:10;;;;;;;;;;;8.40;99.90;;;;;;5092572;28;19908;-78
2022/03/04 13:18:36;;;;;;;;;;;8.60;99.90;;;;;;5092363;28;19969;-79
2022/03/04 13:21:02;;;;;;;;;;;8.70;99.90;;;;;;5092466;28;20323;-79
2022/03/04 13:23:28;;;;;;;;;;;8.80;99.90;;;;;;5091830;28;19942;-79
2022/03/04 13:25:55;;;;;;;;;;;8.80;99.90;;;;;;5092612;28;20002;-78
2022/03/04 13:28:21;;;;;;;;;;;8.90;99.90;;;;;;5091930;28;19955;-77
2022/03/04 13:30:47;;;;;;;;;;;9.00;99.90;;;;;;5092231;28;19958;-79
2022/03/04 13:33:13;;;;;;;;;;;9.10;99.90;;;;;;5091846;28;20427;-80
2022/03/04 13:35:47;;;;;;;;;;;9.20;99.90;;;;;;5092222;28;19940;-79
2022/03/04 13:38:22;;;;;;;;;;;9.10;99.90;;;;;;5092342;28;19950;-79
2022/03/04 13:40:49;;;;;;;;;;;9.00;99.90;;;;;;5091058;28;19909;-79
2022/03/04 13:43:26;;;;;;;;;;;8.90;99.90;;;;;;5093261;28;20403;-79
2022/03/04 13:45:54;;;;;;;;;;;8.80;99.90;;;;;;5091893;28;20325;-79
2022/03/04 13:48:20;;;;;;;;;;;8.80;99.90;;;;;;5094805;28;19923;-78
2022/03/04 13:50:47;;;;;;;;;;;8.80;99.90;;;;;;5102943;28;19896;-79
2022/03/04 13:53:13;;;;;;;;;;;8.80;99.90;;;;;;5103266;28;19961;-79
2022/03/04 13:55:43;;;;;;;;;;;8.80;99.90;;;;;;5093967;28;20036;-79
2022/03/04 13:58:19;;;;;;;;;;;8.70;99.90;;;;;;5095630;28;19920;-79
2022/03/04 14:00:45;;;;;;;;;;;8.70;99.90;;;;;;5094134;28;19908;-79
2022/03/04 14:03:12;;;;;;;;;;;8.80;99.90;;;;;;5095482;28;20332;-79
2022/03/04 14:05:39;;;;;;;;;;;9.00;99.90;;;;;;5094580;28;20433;-80
2022/03/04 14:08:06;;;;;;;;;;;9.10;99.90;;;;;;5093470;28;19919;-79
2022/03/04 14:10:32;;;;;;;;;;;9.20;99.90;;;;;;5094169;28;19931;-79
2022/03/04 14:12:58;;;;;;;;;;;9.40;99.90;;;;;;5094671;28;20350;-79
2022/03/04 14:15:24;;;;;;;;;;;9.50;99.90;;;;;;5094385;28;20368;-79
2022/03/04 14:17:52;;;;;;;;;;;9.60;99.90;;;;;;5095423;28;19915;-79
2022/03/04 14:20:17;;;;;;;;;;;9.70;99.90;;;;;;5094879;28;19909;-79
2022/03/04 14:22:43;;;;;;;;;;;9.70;99.90;;;;;;5094606;28;19964;-80
2022/03/04 14:25:09;;;;;;;;;;;9.60;99.90;;;;;;5093600;28;19962;-79
2022/03/04 14:27:35;;;;;;;;;;;9.50;99.90;;;;;;5094444;28;20479;-79
2022/03/04 14:30:00;;;;;;;;;;;9.50;99.90;;;;;;5094861;28;19908;-79